createdAt,value
2018-09-11T00:01:27.541Z,14.03
2018-09-11T00:04:32.135Z,14.08
2018-09-11T00:07:36.491Z,14.08
2018-09-11T00:10:40.994Z,14.09
2018-09-11T00:13:45.597Z,14.01
2018-09-11T00:16:51.669Z,14.04
2018-09-11T00:19:56.019Z,14.07
2018-09-11T00:23:00.549Z,13.99
2018-09-11T00:26:05.603Z,13.93
2018-09-11T00:29:10.011Z,13.90
2018-09-11T00:32:14.764Z,13.85
2018-09-11T00:35:19.156Z,13.79
2018-09-11T00:38:23.622Z,13.73
2018-09-11T00:41:28.346Z,13.77
2018-09-11T00:44:33.045Z,13.70
2018-09-11T00:47:37.497Z,13.68
2018-09-11T00:50:42.306Z,13.66
2018-09-11T00:53:46.787Z,13.67
2018-09-11T00:56:51.029Z,13.77
2018-09-11T00:59:55.632Z,13.82
2018-09-11T01:03:00.128Z,13.93
2018-09-11T01:06:04.520Z,13.90
2018-09-11T01:09:10.205Z,13.90
2018-09-11T01:12:14.582Z,13.87
2018-09-11T01:15:19.946Z,13.92
2018-09-11T01:18:24.358Z,13.98
2018-09-11T01:21:28.758Z,14.03
2018-09-11T01:24:33.302Z,13.99
2018-09-11T01:27:37.741Z,13.99
2018-09-11T01:30:42.149Z,13.90
2018-09-11T01:33:46.782Z,13.88
2018-09-11T01:36:51.186Z,13.85
2018-09-11T01:39:57.218Z,13.80
2018-09-11T01:43:01.608Z,13.74
2018-09-11T01:46:05.956Z,13.70
2018-09-11T01:49:10.609Z,13.65
2018-09-11T01:52:14.954Z,13.69
2018-09-11T01:55:19.337Z,13.64
2018-09-11T01:58:23.669Z,13.58
2018-09-11T02:01:28.062Z,13.52
2018-09-11T02:04:32.569Z,13.46
2018-09-11T02:07:37.588Z,13.41
2018-09-11T02:10:42.031Z,13.36
2018-09-11T02:13:46.349Z,13.33
2018-09-11T02:16:51.137Z,13.37
2018-09-11T02:19:55.602Z,13.29
2018-09-11T02:22:59.932Z,13.24
2018-09-11T02:26:04.268Z,13.18
2018-09-11T02:29:09.071Z,13.20
2018-09-11T02:32:13.505Z,13.15
2018-09-11T02:35:17.871Z,13.17
2018-09-11T02:38:23.258Z,13.16
2018-09-11T02:41:27.690Z,13.13
2018-09-11T02:44:32.246Z,13.14
2018-09-11T02:47:36.637Z,13.09
2018-09-11T02:50:41.069Z,13.05
2018-09-11T02:53:45.794Z,13.03
2018-09-11T02:56:50.186Z,13.01
2018-09-11T02:59:54.743Z,12.96
2018-09-11T03:02:59.093Z,12.93
2018-09-11T03:06:03.606Z,12.91
2018-09-11T03:09:07.962Z,12.92
2018-09-11T03:12:12.413Z,12.91
2018-09-11T03:15:17.539Z,12.90
2018-09-11T03:18:21.949Z,12.91
2018-09-11T03:21:26.354Z,12.86
2018-09-11T03:24:30.834Z,12.83
2018-09-11T03:27:35.152Z,12.91
2018-09-11T03:30:39.541Z,12.83
2018-09-11T03:33:44.095Z,12.81
2018-09-11T03:36:48.512Z,12.79
2018-09-11T03:39:52.879Z,12.73
2018-09-11T03:42:57.876Z,12.66
2018-09-11T03:46:02.416Z,12.90
2018-09-11T03:49:06.903Z,13.04
2018-09-11T03:52:11.767Z,12.72
2018-09-11T03:55:16.106Z,12.56
2018-09-11T03:58:20.551Z,12.48
2018-09-11T04:01:25.037Z,12.41
2018-09-11T04:04:29.389Z,12.38
2018-09-11T04:07:35.054Z,12.35
2018-09-11T04:10:40.255Z,12.47
2018-09-11T04:13:45.085Z,12.38
2018-09-11T04:16:50.140Z,12.34
2018-09-11T04:19:54.580Z,12.28
2018-09-11T04:22:58.918Z,12.62
2018-09-11T04:26:03.646Z,12.30
2018-09-11T04:29:08.180Z,12.22
2018-09-11T04:32:12.877Z,12.23
2018-09-11T04:35:17.273Z,12.28
2018-09-11T04:38:22.749Z,12.22
2018-09-11T04:41:27.519Z,12.16
2018-09-11T04:44:33.419Z,12.14
2018-09-11T04:47:38.011Z,12.11
2018-09-11T04:50:42.896Z,12.18
2018-09-11T04:53:47.245Z,12.13
2018-09-11T04:56:52.093Z,12.09
2018-09-11T04:59:57.365Z,12.17
2018-09-11T05:03:01.943Z,12.21
2018-09-11T05:06:07.091Z,12.33
2018-09-11T05:09:12.246Z,12.31
2018-09-11T05:12:16.582Z,12.54
2018-09-11T05:15:21.075Z,12.63
2018-09-11T05:18:25.425Z,12.56
2018-09-11T05:21:29.893Z,12.79
2018-09-11T05:24:34.372Z,12.77
2018-09-11T05:27:38.956Z,12.85
2018-09-11T05:30:43.529Z,12.98
2018-09-11T05:33:47.903Z,12.98
2018-09-11T05:36:52.864Z,13.08
2018-09-11T05:39:57.297Z,13.13
2018-09-11T05:43:01.869Z,13.24
2018-09-11T05:46:06.472Z,13.38
2018-09-11T05:49:11.461Z,13.68
2018-09-11T05:52:16.122Z,13.91
2018-09-11T05:55:21.026Z,14.31
2018-09-11T05:58:25.435Z,14.67
2018-09-11T06:01:29.829Z,15.25
2018-09-11T06:04:34.374Z,15.55
2018-09-11T06:07:38.810Z,15.61
2018-09-11T06:10:43.117Z,16.20
2018-09-11T06:13:47.525Z,16.91
2018-09-11T06:16:52.011Z,17.12
2018-09-11T06:19:56.346Z,17.17
2018-09-11T06:23:00.733Z,17.11
2018-09-11T06:26:05.601Z,16.92
2018-09-11T06:29:10.022Z,17.09
2018-09-11T06:32:14.788Z,17.88
2018-09-11T06:35:19.218Z,18.81
2018-09-11T06:38:23.715Z,19.70
2018-09-11T06:41:29.024Z,20.51
2018-09-11T06:44:35.262Z,22.09
2018-09-11T06:47:39.577Z,22.24
2018-09-11T06:50:43.999Z,23.51
2018-09-11T06:53:48.379Z,23.73
2018-09-11T06:56:53.093Z,24.88
2018-09-11T06:59:57.520Z,25.93
2018-09-11T07:03:02.027Z,25.80
2018-09-11T07:06:06.876Z,26.07
2018-09-11T07:09:11.925Z,26.07
2018-09-11T07:12:16.530Z,26.50
2018-09-11T07:15:30.774Z,26.72
2018-09-11T07:18:35.169Z,26.45
2018-09-11T07:21:39.562Z,26.83
2018-09-11T07:24:43.985Z,27.08
2018-09-11T07:27:48.320Z,26.65
2018-09-11T07:30:52.935Z,26.64
2018-09-11T07:33:57.458Z,26.52
2018-09-11T07:37:02.062Z,25.41
2018-09-11T07:40:06.818Z,24.68
2018-09-11T07:43:11.194Z,23.40
2018-09-11T07:46:15.561Z,22.93
2018-09-11T07:49:19.953Z,23.14
2018-09-11T07:52:24.501Z,23.89
2018-09-11T07:55:28.910Z,24.41
2018-09-11T07:58:33.271Z,23.63
2018-09-11T08:01:37.853Z,23.01
2018-09-11T08:04:42.350Z,22.74
2018-09-11T08:07:46.745Z,22.73
2018-09-11T08:10:51.138Z,22.79
2018-09-11T08:13:55.519Z,23.46
2018-09-11T08:17:00.336Z,23.99
2018-09-11T08:20:04.800Z,24.55
2018-09-11T08:23:09.174Z,25.02
2018-09-11T08:26:14.397Z,23.22
2018-09-11T08:29:18.817Z,22.98
2018-09-11T08:32:23.245Z,23.56
2018-09-11T08:35:27.901Z,23.70
2018-09-11T08:38:32.258Z,23.87
2018-09-11T08:41:36.955Z,24.20
2018-09-11T08:44:41.790Z,24.79
2018-09-11T08:47:46.281Z,25.13
2018-09-11T08:50:50.733Z,25.29
2018-09-11T08:53:55.193Z,25.59
2018-09-11T08:56:59.606Z,25.03
2018-09-11T09:00:04.233Z,24.74
2018-09-11T09:03:08.900Z,24.82
2018-09-11T09:06:13.493Z,24.95
2018-09-11T09:09:18.034Z,24.25
2018-09-11T09:12:22.413Z,24.48
2018-09-11T09:15:26.980Z,24.91
2018-09-11T09:18:31.428Z,24.74
2018-09-11T09:21:35.814Z,24.43
2018-09-11T09:24:40.272Z,24.78
2018-09-11T09:27:44.758Z,25.01
2018-09-11T09:30:49.312Z,24.79
2018-09-11T09:33:53.949Z,25.19
2018-09-11T09:36:58.364Z,25.21
2018-09-11T09:43:12.360Z,25.17
2018-09-11T09:46:16.867Z,25.22
2018-09-11T09:49:21.258Z,25.18
2018-09-11T09:52:25.616Z,25.43
2018-09-11T09:55:30.029Z,25.31
2018-09-11T09:58:34.611Z,25.40
2018-09-11T10:01:48.363Z,25.35
2018-09-11T10:04:54.805Z,25.46
2018-09-11T10:08:00.147Z,25.27
2018-09-11T10:11:04.759Z,25.48
2018-09-11T10:14:09.316Z,25.67
2018-09-11T10:17:13.709Z,25.86
2018-09-11T10:20:18.762Z,25.79
2018-09-11T10:23:23.162Z,25.50
2018-09-11T10:26:27.662Z,25.71
2018-09-11T10:29:32.402Z,25.70
2018-09-11T10:32:36.797Z,25.54
2018-09-11T10:35:41.318Z,25.54
2018-09-11T10:38:45.769Z,25.36
2018-09-11T10:41:50.561Z,25.20
2018-09-11T10:44:55.003Z,25.19
2018-09-11T10:47:59.281Z,25.15
2018-09-11T10:51:04.290Z,25.24
2018-09-11T10:54:08.757Z,25.36
2018-09-11T10:57:13.241Z,25.43
2018-09-11T11:00:17.865Z,25.44
2018-09-11T11:03:22.540Z,25.47
2018-09-11T11:06:27.156Z,25.55
2018-09-11T11:09:32.612Z,25.68
2018-09-11T11:12:37.125Z,25.90
2018-09-11T11:15:41.556Z,25.95
2018-09-11T11:18:48.575Z,26.07
2018-09-11T11:21:53.249Z,26.12
2018-09-11T11:24:57.860Z,26.02
2018-09-11T11:28:02.573Z,26.16
2018-09-11T11:31:07.476Z,26.43
2018-09-11T11:34:12.161Z,26.56
2018-09-11T11:37:16.683Z,26.54
2018-09-11T11:40:21.609Z,26.53
2018-09-11T11:43:26.033Z,26.41
2018-09-11T11:46:30.503Z,26.31
2018-09-11T11:49:35.071Z,26.35
2018-09-11T11:52:39.535Z,25.98
2018-09-11T11:55:43.973Z,25.79
2018-09-11T11:58:48.963Z,25.97
2018-09-11T12:01:53.415Z,26.09
2018-09-11T12:04:57.952Z,26.12
2018-09-11T12:08:02.562Z,25.90
2018-09-11T12:11:07.208Z,25.54
2018-09-11T12:14:11.662Z,25.54
2018-09-11T12:17:16.920Z,25.66
2018-09-11T12:20:21.656Z,25.87
2018-09-11T12:23:26.970Z,26.01
2018-09-11T12:26:31.624Z,25.86
2018-09-11T12:29:36.104Z,25.73
2018-09-11T12:32:40.597Z,25.69
2018-09-11T12:35:45.374Z,25.81
2018-09-11T12:38:49.873Z,25.83
2018-09-11T12:41:54.413Z,25.89
2018-09-11T12:44:58.937Z,25.79
2018-09-11T12:48:03.999Z,25.85
2018-09-11T12:51:08.129Z,25.87
2018-09-11T12:54:12.820Z,26.09
2018-09-11T12:57:18.523Z,26.13
2018-09-11T13:00:23.052Z,26.13
2018-09-11T13:03:29.462Z,26.05
2018-09-11T13:06:35.239Z,26.00
2018-09-11T13:09:40.128Z,26.02
2018-09-11T13:12:44.538Z,25.79
2018-09-11T13:15:49.061Z,25.85
2018-09-11T13:18:53.550Z,25.96
2018-09-11T13:21:59.011Z,26.08
2018-09-11T13:25:03.626Z,26.18
2018-09-11T13:28:08.247Z,26.25
2018-09-11T13:31:13.599Z,26.17
2018-09-11T13:34:18.741Z,26.17
2018-09-11T13:37:24.974Z,26.16
2018-09-11T13:40:30.742Z,26.17
2018-09-11T13:43:36.198Z,26.18
2018-09-11T13:46:41.403Z,26.20
2018-09-11T13:49:46.592Z,26.22
2018-09-11T13:52:52.400Z,26.17
2018-09-11T13:55:57.112Z,26.25
2018-09-11T13:59:01.760Z,26.26
2018-09-11T14:02:07.582Z,26.24
2018-09-11T14:05:12.666Z,26.21
2018-09-11T14:08:17.318Z,26.20
2018-09-11T14:11:22.283Z,26.21
2018-09-11T14:14:26.876Z,26.18
2018-09-11T14:17:31.473Z,26.15
2018-09-11T14:20:36.265Z,26.12
2018-09-11T14:23:40.740Z,26.15
2018-09-11T14:26:46.458Z,26.12
2018-09-11T14:29:51.821Z,26.20
2018-09-11T14:32:59.121Z,26.18
2018-09-11T14:36:03.680Z,26.16
2018-09-11T14:39:11.065Z,26.13
2018-09-11T14:42:16.350Z,26.09
2018-09-11T14:45:22.360Z,26.08
2018-09-11T14:48:27.012Z,26.04
2018-09-11T14:51:31.542Z,26.05
2018-09-11T14:54:36.403Z,26.00
2018-09-11T14:57:41.602Z,25.95
2018-09-11T15:00:46.195Z,26.01
2018-09-11T15:03:50.685Z,26.18
2018-09-11T15:06:55.153Z,26.16
2018-09-11T15:09:59.775Z,26.04
2018-09-11T15:13:04.740Z,26.04
2018-09-11T15:16:09.384Z,25.90
2018-09-11T15:19:14.436Z,26.03
2018-09-11T15:22:18.901Z,26.00
2018-09-11T15:25:23.260Z,25.85
2018-09-11T15:28:27.828Z,25.72
2018-09-11T15:31:32.426Z,25.80
2018-09-11T15:34:37.711Z,25.78
2018-09-11T15:37:42.714Z,25.70
2018-09-11T15:40:47.339Z,25.70
2018-09-11T15:43:52.992Z,25.56
2018-09-11T15:46:58.265Z,25.63
2018-09-11T15:50:02.985Z,25.54
2018-09-11T15:53:08.270Z,25.47
2018-09-11T15:56:12.961Z,25.52
2018-09-11T15:59:18.812Z,25.60
2018-09-11T16:02:23.847Z,25.55
2018-09-11T16:05:28.397Z,25.60
2018-09-11T16:08:32.947Z,25.63
2018-09-11T16:11:37.535Z,25.63
2018-09-11T16:14:42.084Z,25.59
2018-09-11T16:17:46.843Z,25.56
2018-09-11T16:20:52.063Z,25.37
2018-09-11T16:23:56.734Z,25.32
2018-09-11T16:27:01.134Z,25.26
2018-09-11T16:30:07.218Z,25.14
2018-09-11T16:33:12.666Z,24.94
2018-09-11T16:36:18.595Z,24.91
2018-09-11T16:39:23.940Z,24.67
2018-09-11T16:42:30.065Z,24.55
2018-09-11T16:45:35.333Z,24.55
2018-09-11T16:48:40.400Z,24.36
2018-09-11T16:51:44.938Z,24.05
2018-09-11T16:54:49.524Z,23.95
2018-09-11T16:57:54.061Z,23.72
2018-09-11T17:00:59.000Z,23.51
2018-09-11T17:04:03.559Z,23.35
2018-09-11T17:07:07.939Z,23.07
2018-09-11T17:10:12.641Z,22.83
2018-09-11T17:13:17.336Z,22.70
2018-09-11T17:16:21.869Z,22.57
2018-09-11T17:19:26.488Z,22.33
2018-09-11T17:22:31.630Z,22.20
2018-09-11T17:25:36.678Z,21.94
2018-09-11T17:28:41.416Z,21.71
2018-09-11T17:31:46.698Z,21.47
2018-09-11T17:34:52.204Z,21.24
2018-09-11T17:37:57.368Z,21.01
2018-09-11T17:41:01.776Z,20.82
2018-09-11T17:44:06.283Z,20.61
2018-09-11T17:47:10.700Z,20.38
2018-09-11T17:50:15.024Z,20.21
2018-09-11T17:53:19.581Z,20.00
2018-09-11T17:56:24.161Z,19.84
2018-09-11T17:59:28.564Z,19.68
2018-09-11T18:02:34.407Z,19.48
2018-09-11T18:05:39.081Z,19.33
2018-09-11T18:08:43.864Z,19.20
2018-09-11T18:11:48.290Z,19.10
2018-09-11T18:14:53.074Z,18.99
2018-09-11T18:17:57.501Z,18.89
2018-09-11T18:21:01.906Z,18.89
2018-09-11T18:24:06.641Z,18.74
2018-09-11T18:27:11.141Z,18.60
2018-09-11T18:30:15.714Z,18.38
2018-09-11T18:33:20.178Z,18.30
2018-09-11T18:36:24.741Z,18.21
2018-09-11T18:39:29.119Z,18.15
2018-09-11T18:42:33.602Z,18.07
2018-09-11T18:45:39.006Z,17.95
2018-09-11T18:48:43.522Z,17.82
2018-09-11T18:51:48.301Z,17.76
2018-09-11T18:54:52.961Z,17.72
2018-09-11T18:57:57.373Z,17.62
2018-09-11T19:01:01.731Z,17.55
2018-09-11T19:04:06.737Z,17.46
2018-09-11T19:07:11.600Z,17.40
2018-09-11T19:10:18.907Z,17.34
2018-09-11T19:13:26.050Z,17.29
2018-09-11T19:16:30.631Z,17.16
2018-09-11T19:19:35.593Z,17.10
2018-09-11T19:22:41.773Z,17.08
2018-09-11T19:25:46.536Z,17.08
2018-09-11T19:28:51.038Z,17.02
2018-09-11T19:31:55.542Z,17.12
2018-09-11T19:35:00.116Z,17.11
2018-09-11T19:38:05.679Z,17.11
2018-09-11T19:41:10.525Z,17.16
2018-09-11T19:44:14.952Z,17.03
2018-09-11T19:47:19.393Z,16.96
2018-09-11T19:50:23.802Z,16.84
2018-09-11T19:53:28.551Z,16.76
2018-09-11T19:56:33.123Z,16.70
2018-09-11T19:59:37.817Z,16.64
2018-09-11T20:02:42.204Z,16.62
2018-09-11T20:05:46.710Z,16.62
2018-09-11T20:08:51.609Z,16.61
2018-09-11T20:11:56.480Z,16.67
2018-09-11T20:15:01.115Z,16.70
2018-09-11T20:18:05.804Z,16.72
2018-09-11T20:21:34.355Z,16.69
2018-09-11T20:24:39.341Z,16.60
2018-09-11T20:27:44.426Z,16.50
2018-09-11T20:30:48.932Z,16.44
2018-09-11T20:33:53.543Z,16.36
2018-09-11T20:36:58.148Z,16.39
2018-09-11T20:40:04.996Z,16.36
2018-09-11T20:43:09.907Z,16.37
2018-09-11T20:46:15.012Z,16.45
2018-09-11T20:49:19.373Z,16.47
2018-09-11T20:52:23.850Z,16.26
2018-09-11T20:55:28.694Z,16.31
2018-09-11T20:58:32.877Z,16.26
2018-09-11T21:01:37.304Z,16.30
2018-09-11T21:04:42.573Z,16.29
2018-09-11T21:07:47.149Z,16.24
2018-09-11T21:10:51.596Z,16.22
2018-09-11T21:13:56.063Z,16.14
2018-09-11T21:17:00.427Z,16.08
2018-09-11T21:20:04.972Z,16.13
2018-09-11T21:23:09.872Z,15.97
2018-09-11T21:26:14.627Z,15.94
2018-09-11T21:29:19.584Z,15.85
2018-09-11T21:32:24.198Z,15.77
2018-09-11T21:35:29.258Z,15.72
2018-09-11T21:38:33.676Z,15.80
2018-09-11T21:41:38.118Z,15.72
2018-09-11T21:44:43.693Z,15.80
2018-09-11T21:47:48.312Z,15.65
2018-09-11T21:50:52.837Z,15.50
2018-09-11T21:53:57.321Z,15.39
2018-09-11T21:57:02.044Z,15.34
2018-09-11T22:00:10.097Z,15.28
2018-09-11T22:03:14.453Z,15.24
2018-09-11T22:06:19.031Z,15.24
2018-09-11T22:09:23.800Z,15.24
2018-09-11T22:12:28.427Z,15.18
2018-09-11T22:15:33.498Z,15.13
2018-09-11T22:18:39.181Z,15.08
2018-09-11T22:21:43.594Z,15.04
2018-09-11T22:24:47.981Z,15.06
2018-09-11T22:27:59.216Z,15.13
2018-09-11T22:31:04.008Z,15.15
2018-09-11T22:34:08.519Z,15.13
2018-09-11T22:37:12.981Z,15.07
2018-09-11T22:40:17.428Z,15.05
2018-09-11T22:43:21.838Z,15.14
2018-09-11T22:46:26.688Z,15.02
2018-09-11T22:49:31.032Z,15.01
2018-09-11T22:52:35.890Z,14.96
2018-09-11T22:55:40.536Z,15.07
2018-09-11T22:58:51.145Z,14.94
2018-09-11T23:01:55.501Z,14.83
2018-09-11T23:04:59.940Z,14.88
2018-09-11T23:08:04.894Z,14.82
2018-09-11T23:11:09.549Z,14.81
2018-09-11T23:14:13.910Z,14.82
2018-09-11T23:17:18.345Z,14.76
2018-09-11T23:20:22.719Z,14.68
2018-09-11T23:23:29.377Z,14.61
2018-09-11T23:26:33.749Z,14.61
2018-09-11T23:29:38.087Z,14.65
2018-09-11T23:32:42.468Z,14.63
2018-09-11T23:35:46.826Z,14.61
2018-09-11T23:38:51.446Z,14.60
2018-09-11T23:41:56.091Z,14.57
2018-09-11T23:45:00.507Z,14.50
2018-09-11T23:48:04.926Z,14.45
2018-09-11T23:51:09.419Z,14.39
2018-09-11T23:54:14.229Z,14.38
2018-09-11T23:57:18.603Z,14.39
